Time;durP1;ratioP1;P1;durP2;ratioP2;P2;SDS_P1;SDS_P2;PMS_P1;PMS_P2;Temp;Humidity;BMP_temperature;BMP_pressure;BME280_temperature;BME280_humidity;BME280_pressure;Samples;Min_cycle;Max_cycle;Signal;HPM_P1;HPM_P2
2023/07/27 00:00:51;;;;;;;9.70;3.60;;;;;;;11.24;96.32;96249.88;108238;1279;22594;-76
2023/07/27 00:03:35;;;;;;;4.30;3.40;;;;;;;11.17;96.29;96248.52;108210;1279;22591;-76
2023/07/27 00:06:06;;;;;;;4.40;3.60;;;;;;;11.10;96.28;96230.80;108153;1280;22548;-76
2023/07/27 00:08:40;;;;;;;5.30;3.30;;;;;;;11.00;96.44;96223.96;108235;1279;22584;-76
2023/07/27 00:11:13;;;;;;;4.80;3.60;;;;;;;10.93;96.64;96221.35;108243;1279;22544;-76
2023/07/27 00:13:44;;;;;;;5.50;3.60;;;;;;;10.88;96.88;96228.08;108218;1279;22532;-76
2023/07/27 00:16:15;;;;;;;5.70;3.70;;;;;;;10.84;97.06;96233.98;108218;1279;24498;-76
2023/07/27 00:18:48;;;;;;;5.30;3.40;;;;;;;10.84;97.20;96234.66;108281;1279;22540;-76
2023/07/27 00:21:19;;;;;;;4.00;3.60;;;;;;;10.85;97.38;96234.19;108205;1279;22550;-76
2023/07/27 00:23:50;;;;;;;5.60;3.40;;;;;;;10.87;97.45;96239.23;108241;1279;22632;-76
2023/07/27 00:26:23;;;;;;;4.70;3.20;;;;;;;10.88;97.53;96240.71;108212;1279;23824;-76
2023/07/27 00:28:54;;;;;;;3.40;3.10;;;;;;;10.89;97.55;96237.88;108217;1277;23853;-76
2023/07/27 00:31:25;;;;;;;4.80;3.70;;;;;;;10.90;97.57;96237.13;108228;1279;22557;-76
2023/07/27 00:33:58;;;;;;;3.90;3.30;;;;;;;10.92;97.52;96236.02;108259;1276;22545;-76
2023/07/27 00:36:30;;;;;;;3.00;2.70;;;;;;;10.96;97.58;96234.79;108173;1279;22528;-76
2023/07/27 00:39:04;;;;;;;5.30;3.20;;;;;;;11.02;97.58;96238.32;108278;1279;24212;-76
2023/07/27 00:41:35;;;;;;;4.40;3.10;;;;;;;11.06;97.47;96241.95;108245;1280;26460;-76
2023/07/27 00:44:06;;;;;;;5.30;2.90;;;;;;;11.09;97.42;96247.89;108158;1278;22532;-76
2023/07/27 00:46:40;;;;;;;4.10;3.30;;;;;;;11.13;97.37;96246.25;108244;1279;22547;-76
2023/07/27 00:49:11;;;;;;;3.70;2.90;;;;;;;11.15;97.29;96245.11;108232;1278;22524;-76
2023/07/27 00:51:45;;;;;;;3.90;3.10;;;;;;;11.17;97.10;96255.37;108201;1279;22528;-76
2023/07/27 00:54:16;;;;;;;4.90;3.10;;;;;;;11.18;97.06;96261.55;108231;1279;24221;-76
2023/07/27 00:56:48;;;;;;;5.10;3.30;;;;;;;11.19;97.07;96262.71;108268;1279;22606;-76
2023/07/27 00:59:19;;;;;;;3.80;3.50;;;;;;;11.23;97.06;96260.89;108223;1279;22641;-76
2023/07/27 01:01:51;;;;;;;5.60;3.40;;;;;;;11.26;96.94;96263.29;108256;1279;23036;-76
2023/07/27 01:04:24;;;;;;;4.60;3.30;;;;;;;11.29;96.88;96260.84;108242;1279;22517;-76
2023/07/27 01:06:58;;;;;;;5.40;3.70;;;;;;;11.31;96.94;96264.27;108223;1276;25443;-75
2023/07/27 01:09:28;;;;;;;5.30;3.40;;;;;;;11.32;96.94;96263.92;108210;1279;24236;-76
2023/07/27 01:12:12;;;;;;;6.00;3.80;;;;;;;11.29;96.84;96263.92;108242;1279;22692;-75
2023/07/27 01:15:09;;;;;;;7.00;3.70;;;;;;;11.26;96.90;96266.73;108194;1276;22571;-76
2023/07/27 01:17:45;;;;;;;4.00;3.40;;;;;;;11.23;96.95;96266.98;108217;1278;22518;-76
2023/07/27 01:20:25;;;;;;;7.80;3.80;;;;;;;11.21;97.04;96269.35;108204;1279;22532;-76
2023/07/27 01:23:40;;;;;;;5.00;3.60;;;;;;;11.21;97.07;96268.77;108193;1279;24224;-75
2023/07/27 01:26:51;;;;;;;5.60;3.40;;;;;;;11.23;97.16;96267.79;108154;1276;22857;-77
2023/07/27 01:29:56;;;;;;;4.60;3.70;;;;;;;11.26;97.15;96270.40;108111;1277;22528;-76
2023/07/27 01:32:37;;;;;;;4.30;3.30;;;;;;;11.27;97.16;96272.20;108121;1279;26382;-77
2023/07/27 01:35:12;;;;;;;4.70;3.90;;;;;;;11.26;97.14;96269.55;108242;1279;24199;-77
2023/07/27 01:37:46;;;;;;;5.80;3.60;;;;;;;11.24;97.13;96271.05;108207;1279;22540;-76
2023/07/27 01:40:17;;;;;;;5.20;4.00;;;;;;;11.21;97.06;96265.02;108204;1279;24224;-77
2023/07/27 01:42:50;;;;;;;5.90;3.70;;;;;;;11.17;97.14;96265.40;108256;1276;24148;-76
2023/07/27 01:45:23;;;;;;;5.70;4.00;;;;;;;11.15;97.20;96259.98;108171;1279;23875;-77
2023/07/27 01:47:56;;;;;;;5.30;3.60;;;;;;;11.11;97.23;96259.48;108191;1279;24043;-76
2023/07/27 01:50:28;;;;;;;5.40;3.50;;;;;;;11.07;97.30;96262.31;108199;1273;22567;-76
2023/07/27 01:53:02;;;;;;;5.50;3.80;;;;;;;11.04;97.36;96257.75;108249;1279;22542;-76
2023/07/27 01:55:35;;;;;;;6.10;3.50;;;;;;;11.04;97.40;96263.42;108213;1279;25613;-77
2023/07/27 01:58:07;;;;;;;4.20;3.50;;;;;;;11.03;97.45;96263.44;108209;1280;22636;-77
2023/07/27 02:00:42;;;;;;;5.10;3.60;;;;;;;11.01;97.48;96266.66;108248;1277;22549;-77
2023/07/27 02:03:14;;;;;;;5.70;4.20;;;;;;;11.03;97.45;96271.09;108211;1279;22606;-77
2023/07/27 02:05:45;;;;;;;5.30;3.80;;;;;;;11.08;97.47;96269.04;108216;1279;22513;-77
2023/07/27 02:08:19;;;;;;;4.80;3.30;;;;;;;11.11;97.30;96265.96;108244;1276;24061;-77
2023/07/27 02:10:56;;;;;;;6.60;4.00;;;;;;;11.12;97.18;96267.07;108250;1279;22643;-77
2023/07/27 02:13:32;;;;;;;5.50;3.40;;;;;;;11.14;97.10;96271.55;108242;1279;22537;-77
2023/07/27 02:16:13;;;;;;;6.50;3.80;;;;;;;11.12;96.89;96275.82;108210;1272;22568;-76
2023/07/27 02:18:46;;;;;;;6.20;3.50;;;;;;;11.09;96.83;96280.00;108200;1277;24218;-76
2023/07/27 02:21:17;;;;;;;5.00;3.30;;;;;;;11.07;96.90;96281.63;108247;1279;22523;-76
2023/07/27 02:23:49;;;;;;;4.50;3.00;;;;;;;11.05;96.82;96281.50;108191;1279;25482;-76
2023/07/27 02:26:20;;;;;;;4.10;3.40;;;;;;;11.03;96.85;96281.38;108234;1276;22640;-76
2023/07/27 02:28:51;;;;;;;5.50;3.40;;;;;;;11.02;96.75;96282.50;108203;1279;22528;-76
2023/07/27 02:31:24;;;;;;;5.20;3.40;;;;;;;11.03;96.65;96281.16;108205;1279;22526;-76
2023/07/27 02:33:55;;;;;;;5.10;3.90;;;;;;;11.02;96.54;96282.87;108248;1279;22526;-76
2023/07/27 02:36:26;;;;;;;4.60;3.20;;;;;;;11.01;96.54;96280.23;108183;1276;25240;-76
2023/07/27 02:38:57;;;;;;;4.50;3.40;;;;;;;10.99;96.41;96285.46;108238;1279;22601;-76
2023/07/27 02:41:33;;;;;;;5.00;3.40;;;;;;;10.97;96.31;96287.98;108214;1280;22535;-76
2023/07/27 02:44:05;;;;;;;7.20;3.90;;;;;;;10.96;96.21;96290.31;108224;1279;22563;-76
2023/07/27 02:46:36;;;;;;;4.00;3.40;;;;;;;10.92;96.02;96293.57;108201;1279;24238;-76
2023/07/27 02:49:07;;;;;;;6.50;3.50;;;;;;;10.92;96.01;96292.29;108197;1278;22536;-76
2023/07/27 02:51:38;;;;;;;7.50;4.10;;;;;;;10.94;96.00;96292.91;108191;1279;24206;-76
2023/07/27 02:54:09;;;;;;;4.10;3.20;;;;;;;10.93;95.81;96297.38;108264;1278;25415;-76
2023/07/27 02:56:39;;;;;;;3.30;3.00;;;;;;;10.91;95.69;96299.38;108198;1279;23511;-76
2023/07/27 02:59:10;;;;;;;4.70;3.30;;;;;;;10.86;95.61;96296.48;108177;1279;22528;-76
2023/07/27 03:01:41;;;;;;;4.40;3.30;;;;;;;10.86;95.56;96299.03;108205;1279;22537;-76
2023/07/27 03:04:12;;;;;;;6.10;3.70;;;;;;;10.84;95.47;96302.39;108261;1269;22538;-76
2023/07/27 03:06:43;;;;;;;4.10;3.40;;;;;;;10.82;95.46;96307.49;108230;1280;24235;-76
2023/07/27 03:09:14;;;;;;;5.90;3.50;;;;;;;10.79;95.36;96305.59;108198;1274;22667;-76
2023/07/27 03:11:49;;;;;;;5.60;3.40;;;;;;;10.79;95.31;96308.29;108209;1279;22536;-76
2023/07/27 03:14:20;;;;;;;6.40;3.50;;;;;;;10.76;95.19;96309.18;108163;1278;26590;-76
2023/07/27 03:16:51;;;;;;;4.90;3.50;;;;;;;10.75;95.26;96313.55;108218;1279;24046;-76
2023/07/27 03:19:23;;;;;;;7.60;3.70;;;;;;;10.73;95.24;96313.75;108258;1273;22636;-77
2023/07/27 03:21:54;;;;;;;4.50;2.90;;;;;;;10.73;95.28;96322.64;108064;1280;22694;-78
2023/07/27 03:24:25;;;;;;;5.60;3.60;;;;;;;10.73;95.09;96327.95;108218;1279;22579;-76
2023/07/27 03:26:58;;;;;;;5.30;3.60;;;;;;;10.72;95.15;96329.86;108224;1278;22510;-76
2023/07/27 03:29:29;;;;;;;5.50;3.90;;;;;;;10.73;95.17;96327.73;108224;1280;23967;-77
2023/07/27 03:32:00;;;;;;;5.70;4.00;;;;;;;10.72;95.13;96329.77;108288;1280;22532;-76
2023/07/27 03:34:35;;;;;;;4.40;3.00;;;;;;;10.72;95.13;96329.61;108372;1279;22536;-76
2023/07/27 03:37:07;;;;;;;4.50;2.90;;;;;;;10.71;95.03;96326.08;108325;1276;22544;-77
2023/07/27 03:39:41;;;;;;;4.50;3.20;;;;;;;10.69;94.94;96325.33;108315;1279;22966;-76
2023/07/27 03:42:12;;;;;;;4.90;3.10;;;;;;;10.66;94.89;96322.52;108259;1271;22676;-78
2023/07/27 03:44:44;;;;;;;3.80;3.20;;;;;;;10.60;94.92;96319.26;108297;1280;27697;-77
2023/07/27 03:47:15;;;;;;;5.30;3.70;;;;;;;10.55;94.90;96322.00;108300;1276;22568;-76
2023/07/27 03:49:46;;;;;;;4.30;3.20;;;;;;;10.54;94.97;96320.60;108374;1266;25422;-76
2023/07/27 03:52:18;;;;;;;4.30;3.00;;;;;;;10.54;95.00;96322.77;108342;1279;23766;-76
2023/07/27 03:54:50;;;;;;;5.40;3.30;;;;;;;10.55;94.97;96325.67;108203;1279;22528;-76
2023/07/27 03:57:21;;;;;;;4.20;3.00;;;;;;;10.57;95.01;96326.56;108272;1277;22531;-76
2023/07/27 03:59:56;;;;;;;4.50;3.50;;;;;;;10.58;95.04;96328.77;108060;1279;22789;-76
2023/07/27 04:02:28;;;;;;;3.90;3.00;;;;;;;10.58;94.98;96334.98;108256;1279;22522;-76
2023/07/27 04:05:00;;;;;;;5.80;3.40;;;;;;;10.56;94.96;96336.38;108227;1279;22567;-76
2023/07/27 04:07:31;;;;;;;6.10;3.50;;;;;;;10.57;95.08;96344.10;108235;1279;22537;-76
2023/07/27 04:10:04;;;;;;;6.00;3.50;;;;;;;10.58;95.23;96343.94;108214;1272;22540;-76
2023/07/27 04:12:38;;;;;;;4.50;3.10;;;;;;;10.63;95.26;96344.66;108235;1279;22528;-76
2023/07/27 04:15:12;;;;;;;4.60;3.00;;;;;;;10.69;95.35;96346.34;108190;1279;22601;-76
2023/07/27 04:17:43;;;;;;;5.50;3.30;;;;;;;10.75;95.38;96349.77;108264;1274;25485;-76
2023/07/27 04:20:14;;;;;;;5.40;3.40;;;;;;;10.79;95.35;96352.23;108204;1279;22606;-76
2023/07/27 04:22:45;;;;;;;5.40;3.40;;;;;;;10.84;95.25;96350.75;108237;1279;22539;-76
2023/07/27 04:25:16;;;;;;;5.00;3.20;;;;;;;10.89;95.19;96350.43;108173;1279;25239;-76
2023/07/27 04:27:49;;;;;;;9.50;8.00;;;;;;;10.91;95.04;96353.95;108236;1279;22541;-76
2023/07/27 04:30:20;;;;;;;5.80;4.30;;;;;;;10.93;94.99;96361.56;108217;1277;25380;-76
2023/07/27 04:32:51;;;;;;;6.40;3.80;;;;;;;10.95;94.94;96365.07;108188;1278;22533;-76
2023/07/27 04:35:22;;;;;;;4.10;3.30;;;;;;;11.01;94.85;96368.36;108145;1277;22560;-76
2023/07/27 04:37:53;;;;;;;4.90;3.30;;;;;;;11.08;94.92;96367.29;108210;1279;22534;-76
2023/07/27 04:40:25;;;;;;;5.80;3.30;;;;;;;11.19;95.01;96368.04;108191;1279;22525;-76
2023/07/27 04:42:56;;;;;;;3.80;2.70;;;;;;;11.35;95.03;96369.25;108175;1279;22535;-76
2023/07/27 04:45:34;;;;;;;4.90;3.40;;;;;;;11.45;94.60;96374.35;107979;1276;253412;-76
2023/07/27 04:48:08;;;;;;;5.00;3.20;;;;;;;11.54;94.40;96374.33;108145;1276;24249;-76
2023/07/27 04:50:39;;;;;;;5.00;3.00;;;;;;;11.58;94.06;96374.27;108198;1273;23830;-76
2023/07/27 04:53:11;;;;;;;3.70;2.80;;;;;;;11.57;93.66;96369.86;108170;1273;22564;-76
2023/07/27 04:55:42;;;;;;;4.70;3.30;;;;;;;11.53;93.28;96369.48;108314;1279;22526;-76
2023/07/27 04:58:13;;;;;;;5.40;2.70;;;;;;;11.47;93.27;96371.03;108332;1279;23270;-76
2023/07/27 05:00:44;;;;;;;5.10;3.60;;;;;;;11.43;93.27;96371.73;108333;1279;22644;-76
2023/07/27 05:03:15;;;;;;;17.20;11.10;;;;;;;11.42;93.15;96370.27;108319;1273;22518;-76
2023/07/27 05:05:46;;;;;;;9.40;4.00;;;;;;;11.44;93.08;96366.03;108141;1273;28318;-76
2023/07/27 05:08:18;;;;;;;8.10;4.90;;;;;;;11.48;92.94;96371.11;108197;1279;22522;-76
2023/07/27 05:10:49;;;;;;;9.30;4.30;;;;;;;11.54;92.78;96373.62;108190;1274;22985;-76
2023/07/27 05:13:20;;;;;;;7.40;4.90;;;;;;;11.58;92.51;96378.61;108134;1279;22552;-76
2023/07/27 05:15:51;;;;;;;6.50;3.60;;;;;;;11.62;92.39;96378.96;108208;1279;22525;-76
2023/07/27 05:18:23;;;;;;;5.00;2.80;;;;;;;11.69;92.46;96386.52;108227;1271;22554;-76
2023/07/27 05:20:55;;;;;;;5.60;3.20;;;;;;;11.77;92.31;96388.34;108191;1273;22546;-76
2023/07/27 05:23:26;;;;;;;4.00;2.80;;;;;;;11.76;92.09;96388.19;108176;1279;25595;-76
2023/07/27 05:25:57;;;;;;;5.40;3.30;;;;;;;11.75;91.90;96390.23;108130;1277;22550;-76
2023/07/27 05:28:29;;;;;;;5.20;3.00;;;;;;;11.74;91.85;96389.98;108169;1279;22528;-76
2023/07/27 05:31:03;;;;;;;3.90;2.70;;;;;;;11.77;91.85;96391.84;108204;1279;25255;-76
2023/07/27 05:33:36;;;;;;;4.60;2.60;;;;;;;11.78;91.68;96395.17;108193;1279;22532;-76
2023/07/27 05:36:08;;;;;;;3.90;2.90;;;;;;;11.81;91.55;96395.36;108185;1279;24234;-76
2023/07/27 05:38:39;;;;;;;6.10;3.10;;;;;;;11.89;91.71;96400.98;108167;1279;24200;-76
2023/07/27 05:41:14;;;;;;;4.60;3.20;;;;;;;11.96;91.62;96401.86;108210;1279;23470;-76
2023/07/27 05:43:48;;;;;;;6.10;2.60;;;;;;;12.04;91.60;96404.92;108241;1272;22536;-76
2023/07/27 05:46:19;;;;;;;6.40;2.90;;;;;;;12.10;91.44;96402.80;108174;1276;24594;-76
2023/07/27 05:48:50;;;;;;;4.20;2.70;;;;;;;12.26;91.83;96399.08;108184;1260;24442;-76
2023/07/27 05:51:21;;;;;;;4.10;2.50;;;;;;;12.65;92.32;96397.09;108170;1279;22634;-76
2023/07/27 05:53:52;;;;;;;6.70;3.10;;;;;;;13.29;92.49;96395.67;108174;1273;25287;-76
2023/07/27 05:56:23;;;;;;;4.40;3.00;;;;;;;14.79;95.25;96396.45;108182;1279;25362;-76
2023/07/27 05:58:54;;;;;;;3.40;2.30;;;;;;;16.69;92.67;96385.95;108203;1273;22517;-76
2023/07/27 06:01:27;;;;;;;4.70;2.70;;;;;;;17.78;88.52;96386.74;108173;1279;22515;-76
2023/07/27 06:04:03;;;;;;;4.20;2.50;;;;;;;18.80;86.05;96392.47;108165;1271;22524;-76
2023/07/27 06:06:36;;;;;;;3.70;2.40;;;;;;;19.79;83.55;96390.73;108181;1279;22536;-76
2023/07/27 06:09:09;;;;;;;3.10;2.40;;;;;;;20.30;80.11;96390.71;108192;1274;25242;-76
2023/07/27 06:11:41;;;;;;;4.10;3.40;;;;;;;20.84;77.57;96387.98;108212;1279;22534;-76
2023/07/27 06:14:12;;;;;;;2.80;2.10;;;;;;;20.66;72.69;96391.03;108204;1279;22561;-77
2023/07/27 06:16:44;;;;;;;3.90;2.20;;;;;;;20.66;71.80;96388.81;108194;1271;22529;-77
2023/07/27 06:19:15;;;;;;;3.20;2.20;;;;;;;20.77;71.39;96386.20;108150;1279;22523;-77
2023/07/27 06:21:49;;;;;;;4.70;2.60;;;;;;;21.05;69.92;96389.63;108172;1277;22523;-77
2023/07/27 06:24:20;;;;;;;4.30;2.80;;;;;;;21.20;68.30;96386.26;108194;1273;22565;-77
2023/07/27 06:26:51;;;;;;;3.10;2.10;;;;;;;21.41;68.41;96386.04;108146;1273;26631;-77
2023/07/27 06:29:23;;;;;;;3.10;2.20;;;;;;;22.04;67.59;96389.55;108207;1279;25319;-77
2023/07/27 06:31:55;;;;;;;3.40;1.80;;;;;;;22.22;66.00;96387.04;108310;1279;25409;-77
2023/07/27 06:34:26;;;;;;;3.50;2.00;;;;;;;22.57;65.30;96385.79;108312;1279;25434;-77
2023/07/27 06:36:57;;;;;;;4.10;2.00;;;;;;;22.91;64.29;96388.11;108305;1273;22532;-77
2023/07/27 06:39:29;;;;;;;3.40;2.00;;;;;;;23.07;64.07;96389.91;108266;1273;22572;-77
2023/07/27 06:42:06;;;;;;;2.70;2.10;;;;;;;23.82;64.09;96391.92;108156;1279;22557;-77
2023/07/27 06:44:39;;;;;;;2.40;1.90;;;;;;;23.95;61.32;96389.61;108321;1276;22522;-77
2023/07/27 06:47:11;;;;;;;5.60;2.10;;;;;;;23.90;60.34;96393.49;108312;1279;22519;-77
2023/07/27 06:49:42;;;;;;;2.30;2.10;;;;;;;23.70;59.73;96393.80;108322;1279;25357;-77
2023/07/27 06:52:13;;;;;;;2.30;1.90;;;;;;;23.98;59.37;96394.98;108309;1273;24344;-77
2023/07/27 06:54:44;;;;;;;2.60;2.10;;;;;;;24.09;58.65;96399.66;108282;1277;22643;-77
2023/07/27 06:57:15;;;;;;;2.00;1.70;;;;;;;23.90;56.62;96400.07;108220;1273;25350;-77
2023/07/27 06:59:47;;;;;;;3.30;2.00;;;;;;;23.23;55.80;96403.59;108194;1279;22532;-77
2023/07/27 07:02:18;;;;;;;4.10;1.50;;;;;;;22.69;55.53;96401.89;108180;1273;22668;-77
2023/07/27 07:04:51;;;;;;;3.40;2.10;;;;;;;22.85;56.43;96399.83;108186;1277;22525;-77
2023/07/27 07:07:23;;;;;;;3.10;1.90;;;;;;;23.28;56.11;96401.11;108187;1273;25240;-77
2023/07/27 07:09:54;;;;;;;4.60;1.90;;;;;;;23.49;54.89;96402.86;108180;1279;25515;-77
2023/07/27 07:12:27;;;;;;;2.80;2.00;;;;;;;23.52;54.34;96404.06;108186;1273;22525;-77
2023/07/27 07:14:58;;;;;;;3.10;1.80;;;;;;;23.78;54.93;96400.46;108186;1279;25322;-77
2023/07/27 07:17:29;;;;;;;3.30;1.70;;;;;;;23.88;53.60;96401.58;108202;1279;24228;-77
2023/07/27 07:20:04;;;;;;;2.60;1.90;;;;;;;24.06;52.92;96404.19;108207;1279;22626;-77
2023/07/27 07:22:37;;;;;;;2.30;1.60;;;;;;;23.50;50.97;96412.52;108148;1279;22524;-77
2023/07/27 07:25:09;;;;;;;3.20;1.60;;;;;;;23.18;51.53;96414.40;108176;1272;22944;-77
2023/07/27 07:27:40;;;;;;;2.30;1.60;;;;;;;23.23;51.13;96412.09;108210;1279;22540;-77
2023/07/27 07:30:14;;;;;;;1.90;1.50;;;;;;;23.10;51.44;96412.30;108149;1279;22520;-77
2023/07/27 07:32:45;;;;;;;2.10;1.30;;;;;;;22.96;50.29;96415.24;108222;1272;22528;-77
2023/07/27 07:35:19;;;;;;;2.30;1.70;;;;;;;22.36;50.97;96418.54;108174;1279;22639;-76
2023/07/27 07:37:50;;;;;;;2.80;1.80;;;;;;;22.40;51.84;96418.23;108224;1279;22538;-77
2023/07/27 07:40:24;;;;;;;1.90;1.60;;;;;;;22.09;51.20;96415.23;108139;1279;22526;-77
2023/07/27 07:42:57;;;;;;;4.20;1.80;;;;;;;21.10;51.04;96420.31;108211;1279;22537;-76
2023/07/27 07:45:28;;;;;;;2.90;1.40;;;;;;;20.65;52.56;96418.49;108161;1273;23819;-76
2023/07/27 07:47:59;;;;;;;3.00;1.60;;;;;;;20.31;52.52;96423.20;108172;1279;22528;-77
2023/07/27 07:50:30;;;;;;;3.50;1.60;;;;;;;20.34;53.61;96421.75;108184;1277;22536;-76
2023/07/27 07:53:05;;;;;;;1.90;1.30;;;;;;;20.08;52.77;96425.67;108161;1272;22745;-76
2023/07/27 07:55:38;;;;;;;3.00;1.80;;;;;;;19.29;53.41;96429.23;108131;1273;22529;-76
2023/07/27 07:58:09;;;;;;;2.70;1.60;;;;;;;18.61;54.39;96427.63;108189;1279;23393;-76
2023/07/27 08:00:41;;;;;;;3.10;1.80;;;;;;;19.07;55.91;96428.34;108167;1279;24154;-76
2023/07/27 08:03:12;;;;;;;3.20;2.10;;;;;;;19.66;55.75;96429.52;108180;1276;24146;-76
2023/07/27 08:05:45;;;;;;;2.00;1.60;;;;;;;20.15;55.42;96425.48;108163;1279;22654;-76
2023/07/27 08:08:19;;;;;;;1.50;1.40;;;;;;;20.56;54.32;96418.57;108169;1273;22542;-76
2023/07/27 08:10:50;;;;;;;1.80;1.60;;;;;;;20.18;54.00;96420.56;108180;1272;22578;-76
2023/07/27 08:13:21;;;;;;;1.70;1.50;;;;;;;19.77;53.90;96421.13;108165;1279;22546;-76
2023/07/27 08:15:55;;;;;;;3.20;1.40;;;;;;;19.96;54.52;96420.58;108151;1272;22533;-76
2023/07/27 08:18:29;;;;;;;2.30;1.20;;;;;;;20.18;53.66;96417.40;108176;1276;26585;-76
2023/07/27 08:21:05;;;;;;;1.70;1.30;;;;;;;19.71;53.15;96423.49;108162;1272;22534;-76
2023/07/27 08:23:39;;;;;;;2.00;1.50;;;;;;;19.97;53.56;96421.15;108176;1279;22536;-76
2023/07/27 08:26:12;;;;;;;2.80;1.60;;;;;;;19.87;53.10;96420.16;108164;1279;22538;-76
2023/07/27 08:28:43;;;;;;;1.80;1.50;;;;;;;19.53;53.65;96423.50;108205;1272;22531;-76
2023/07/27 08:31:14;;;;;;;2.70;1.50;;;;;;;19.77;53.22;96426.30;108160;1279;22524;-76
2023/07/27 08:33:45;;;;;;;2.20;1.40;;;;;;;20.19;54.06;96424.48;108152;1279;22520;-76
2023/07/27 08:36:16;;;;;;;2.30;1.10;;;;;;;20.52;53.48;96421.54;108122;1272;22736;-76
2023/07/27 08:38:48;;;;;;;1.40;1.20;;;;;;;20.33;52.55;96426.64;108193;1271;22663;-76
2023/07/27 08:41:19;;;;;;;2.40;1.30;;;;;;;20.35;52.62;96430.30;108198;1279;25358;-76
2023/07/27 08:43:52;;;;;;;1.80;1.30;;;;;;;20.63;52.40;96430.20;108137;1276;22561;-76
2023/07/27 08:46:24;;;;;;;1.70;1.30;;;;;;;21.00;51.99;96427.86;108154;1279;22531;-76
2023/07/27 08:48:56;;;;;;;3.80;1.30;;;;;;;20.99;51.61;96421.06;108131;1279;22566;-76
2023/07/27 08:51:27;;;;;;;2.40;1.30;;;;;;;21.05;51.31;96422.90;108151;1272;25231;-76
2023/07/27 08:53:59;;;;;;;1.40;1.20;;;;;;;20.59;50.66;96421.73;108190;1277;22528;-76
2023/07/27 08:56:31;;;;;;;2.80;1.40;;;;;;;20.66;50.51;96422.11;108152;1276;24368;-76
2023/07/27 08:59:07;;;;;;;2.30;1.20;;;;;;;20.60;50.38;96418.13;108177;1279;22528;-76
2023/07/27 09:01:38;;;;;;;1.50;1.00;;;;;;;20.38;49.86;96418.34;108195;1279;22536;-76
2023/07/27 09:04:11;;;;;;;1.80;1.40;;;;;;;19.76;48.31;96416.70;108162;1271;22554;-76
2023/07/27 09:06:49;;;;;;;2.50;1.30;;;;;;;19.19;49.29;96427.31;108121;1279;22516;-76
2023/07/27 09:09:24;;;;;;;2.00;1.30;;;;;;;19.02;50.73;96420.73;108193;1279;22542;-76
2023/07/27 09:11:55;;;;;;;2.00;1.30;;;;;;;19.27;50.81;96418.79;108191;1279;22677;-76
2023/07/27 09:14:27;;;;;;;1.90;1.40;;;;;;;19.38;51.22;96416.58;108159;1272;22645;-75
2023/07/27 09:16:59;;;;;;;2.00;1.20;;;;;;;19.39;52.24;96416.94;108145;1279;22774;-75
2023/07/27 09:19:36;;;;;;;2.00;1.40;;;;;;;19.30;52.26;96421.23;108205;1271;22572;-76
2023/07/27 09:22:09;;;;;;;1.70;1.20;;;;;;;19.16;52.80;96417.10;108154;1279;22531;-76
2023/07/27 09:24:41;;;;;;;2.30;1.30;;;;;;;18.94;52.07;96417.48;108093;1273;25399;-76
2023/07/27 09:27:14;;;;;;;1.70;1.20;;;;;;;18.59;51.79;96414.73;108174;1279;22547;-76
2023/07/27 09:29:46;;;;;;;1.70;1.40;;;;;;;18.42;51.80;96415.81;108227;1279;22524;-76
2023/07/27 09:32:17;;;;;;;1.80;1.40;;;;;;;18.40;52.08;96410.43;108145;1272;22678;-76
2023/07/27 09:34:57;;;;;;;1.90;1.20;;;;;;;18.69;52.92;96411.25;108186;1279;24308;-76
2023/07/27 09:37:29;;;;;;;1.70;1.20;;;;;;;18.93;53.00;96406.19;108163;1279;22658;-76
2023/07/27 09:40:12;;;;;;;2.10;1.30;;;;;;;18.76;52.48;96417.55;108178;1279;22548;-76
2023/07/27 09:42:45;;;;;;;2.40;1.20;;;;;;;18.41;52.11;96412.98;108210;1279;25298;-76
2023/07/27 09:45:17;;;;;;;1.80;1.40;;;;;;;18.12;52.05;96412.34;108131;1279;22755;-76
2023/07/27 09:47:49;;;;;;;1.60;1.20;;;;;;;18.07;52.31;96412.33;108147;1272;22525;-76
2023/07/27 09:50:23;;;;;;;2.60;1.60;;;;;;;18.16;52.46;96409.65;108197;1272;25382;-76
2023/07/27 09:52:57;;;;;;;1.30;1.00;;;;;;;18.25;52.17;96414.15;108189;1279;22535;-76
2023/07/27 09:55:31;;;;;;;1.60;1.20;;;;;;;18.49;53.38;96405.59;108173;1279;23382;-76
2023/07/27 09:58:06;;;;;;;2.10;1.50;;;;;;;18.76;53.21;96402.58;108131;1279;23533;-76
2023/07/27 10:00:38;;;;;;;1.30;0.80;;;;;;;18.72;52.74;96403.67;108169;1272;22564;-76
2023/07/27 10:03:10;;;;;;;1.60;1.00;;;;;;;18.62;52.30;96400.20;108155;1279;22534;-76
2023/07/27 10:05:45;;;;;;;1.00;0.80;;;;;;;18.58;52.39;96399.13;108120;1271;22553;-76
2023/07/27 10:08:16;;;;;;;2.60;1.40;;;;;;;18.52;52.11;96397.54;108166;1279;22556;-76
2023/07/27 10:10:55;;;;;;;2.00;1.40;;;;;;;18.64;52.79;96394.73;108136;1279;22546;-76
2023/07/27 10:13:41;;;;;;;2.00;1.30;;;;;;;18.75;52.67;96393.44;108146;1257;22535;-76
2023/07/27 10:16:19;;;;;;;1.60;1.00;;;;;;;18.80;53.14;96397.66;108109;1279;22537;-76
2023/07/27 10:18:55;;;;;;;2.00;1.20;;;;;;;18.71;52.62;96393.45;108166;1277;22547;-76
2023/07/27 10:21:28;;;;;;;2.10;1.40;;;;;;;18.68;52.92;96396.41;108146;1279;25361;-76
2023/07/27 10:24:01;;;;;;;1.90;1.30;;;;;;;18.58;52.51;96400.38;108185;1279;25712;-76
2023/07/27 10:26:51;;;;;;;2.30;1.20;;;;;;;18.50;52.47;96398.17;108146;1272;22533;-76
2023/07/27 10:29:27;;;;;;;1.00;0.90;;;;;;;18.55;52.38;96392.73;108170;1271;22573;-76
2023/07/27 10:32:08;;;;;;;1.20;1.00;;;;;;;18.49;52.16;96393.70;108266;1272;22542;-76
2023/07/27 10:34:40;;;;;;;0.80;0.80;;;;;;;18.57;52.90;96393.21;108135;1276;22663;-76
2023/07/27 10:37:16;;;;;;;2.10;1.00;;;;;;;18.61;52.50;96394.02;108145;1279;22605;-76
2023/07/27 10:39:50;;;;;;;4.70;1.30;;;;;;;18.60;52.56;96395.30;108176;1279;22542;-76
2023/07/27 10:42:24;;;;;;;1.50;1.20;;;;;;;18.48;51.96;96391.91;108147;1276;26567;-76
2023/07/27 10:44:57;;;;;;;1.30;1.00;;;;;;;18.47;52.47;96390.63;108154;1279;22531;-76
2023/07/27 10:47:33;;;;;;;2.20;1.50;;;;;;;18.68;53.03;96384.52;108185;1279;22939;-75
2023/07/27 10:50:07;;;;;;;1.30;1.00;;;;;;;18.86;53.04;96384.41;108164;1272;22551;-76
2023/07/27 10:52:39;;;;;;;1.70;1.20;;;;;;;18.82;51.96;96384.98;108167;1279;24390;-76
2023/07/27 10:55:11;;;;;;;1.30;1.00;;;;;;;18.61;51.62;96384.42;108135;1279;22560;-76
2023/07/27 10:57:43;;;;;;;1.20;1.00;;;;;;;18.49;51.46;96379.14;108164;1279;22527;-75
2023/07/27 11:00:16;;;;;;;1.90;1.30;;;;;;;18.56;51.90;96378.29;108130;1256;22535;-76
2023/07/27 11:02:48;;;;;;;1.40;0.90;;;;;;;18.72;51.77;96371.77;108195;1276;22524;-76
2023/07/27 11:05:20;;;;;;;1.80;1.30;;;;;;;18.55;51.14;96372.21;108159;1279;22534;-76
2023/07/27 11:07:51;;;;;;;1.70;1.40;;;;;;;18.41;51.77;96371.05;108149;1272;24205;-76
2023/07/27 11:10:32;;;;;;;1.70;1.20;;;;;;;18.49;51.81;96370.77;108196;1279;24492;-75
2023/07/27 11:13:04;;;;;;;2.60;1.20;;;;;;;18.52;51.91;96366.56;108175;1279;22536;-76
2023/07/27 11:15:38;;;;;;;2.50;1.50;;;;;;;18.57;51.89;96361.50;108129;1279;22520;-76
2023/07/27 11:18:10;;;;;;;1.40;1.10;;;;;;;18.60;52.34;96359.29;108174;1279;22621;-76
2023/07/27 11:20:44;;;;;;;1.50;1.10;;;;;;;18.56;52.34;96362.30;108169;1279;22522;-75
2023/07/27 11:23:17;;;;;;;2.70;1.40;;;;;;;18.52;52.25;96363.36;108180;1278;22529;-76
2023/07/27 11:25:49;;;;;;;2.00;1.40;;;;;;;18.64;52.66;96356.38;108156;1279;22649;-76
2023/07/27 11:28:20;;;;;;;2.90;1.20;;;;;;;18.79;53.24;96351.41;108193;1271;22554;-75
2023/07/27 11:30:52;;;;;;;2.90;1.40;;;;;;;19.00;53.70;96350.14;108168;1276;22531;-75
2023/07/27 11:33:29;;;;;;;2.60;1.30;;;;;;;19.14;53.54;96351.55;108167;1279;24257;-76
2023/07/27 11:36:01;;;;;;;3.20;1.50;;;;;;;19.12;53.08;96348.79;108192;1279;25388;-75
2023/07/27 11:38:41;;;;;;;2.40;1.40;;;;;;;19.20;53.54;96342.58;108129;1272;22531;-76
2023/07/27 11:41:14;;;;;;;1.60;1.20;;;;;;;19.33;53.06;96337.96;108141;1279;25691;-76
2023/07/27 11:43:45;;;;;;;3.10;1.00;;;;;;;19.42;52.49;96341.90;108155;1279;22782;-75
2023/07/27 11:46:21;;;;;;;1.80;1.20;;;;;;;19.39;52.27;96337.12;108130;1279;22536;-76
2023/07/27 11:48:52;;;;;;;1.70;1.10;;;;;;;19.27;51.64;96330.80;108153;1272;22621;-75
2023/07/27 11:51:26;;;;;;;1.80;1.30;;;;;;;19.15;51.76;96334.84;108170;1279;26626;-75